createdAt,value
2023-01-29T00:00:19.165Z,103048.66
2023-01-29T00:00:50.894Z,103049.47
2023-01-29T00:01:27.174Z,103042.72
2023-01-29T00:02:01.496Z,103047.31
2023-01-29T00:02:38.502Z,103052.97
2023-01-29T00:03:17.328Z,103053.50
2023-01-29T00:03:51.346Z,103042.44
2023-01-29T00:04:26.110Z,103053.50
2023-01-29T00:05:09.482Z,103044.06
2023-01-29T00:05:49.578Z,103042.72
2023-01-29T00:06:23.878Z,103038.41
2023-01-29T00:06:58.533Z,103048.94
2023-01-29T00:07:33.158Z,103046.22
2023-01-29T00:08:05.693Z,103037.59
2023-01-29T00:08:38.668Z,103030.88
2023-01-29T00:09:11.511Z,103050.53
2023-01-29T00:09:46.162Z,103040.03
2023-01-29T00:10:20.171Z,103035.72
2023-01-29T00:10:54.899Z,103029.53
2023-01-29T00:11:29.028Z,103025.50
2023-01-29T00:12:02.811Z,103033.03
2023-01-29T00:12:37.111Z,103018.75
2023-01-29T00:13:11.759Z,103027.38
2023-01-29T00:13:46.442Z,103021.72
2023-01-29T00:14:18.340Z,103022.00
2023-01-29T00:14:50.233Z,103019.84
2023-01-29T00:15:22.306Z,103020.38
2023-01-29T00:15:56.062Z,103020.38
2023-01-29T00:16:29.869Z,103020.38
2023-01-29T00:17:02.492Z,103021.72
2023-01-29T00:17:34.718Z,103012.56
2023-01-29T00:18:09.705Z,103010.94
2023-01-29T00:18:46.482Z,103014.44
2023-01-29T00:19:19.578Z,103013.38
2023-01-29T00:19:51.469Z,103011.47
2023-01-29T00:20:25.160Z,103003.13
2023-01-29T00:20:59.496Z,103001.25
2023-01-29T00:21:32.465Z,103001.25
2023-01-29T00:22:07.376Z,103005.56
2023-01-29T00:22:39.410Z,103006.38
2023-01-29T00:23:11.345Z,103004.75
2023-01-29T00:23:48.361Z,103008.78
2023-01-29T00:24:20.692Z,103009.59
2023-01-29T00:24:55.841Z,103002.31
2023-01-29T00:25:34.541Z,103005.56
2023-01-29T00:26:06.890Z,102999.09
2023-01-29T00:26:42.664Z,103000.44
2023-01-29T00:27:17.082Z,103008.78
2023-01-29T00:27:50.813Z,102998.00
2023-01-29T00:28:26.696Z,102986.69
2023-01-29T00:29:02.822Z,102998.81
2023-01-29T00:29:34.495Z,102992.34
2023-01-29T00:30:18.132Z,102997.75
2023-01-29T00:30:52.538Z,102999.63
2023-01-29T00:31:29.967Z,102995.31
2023-01-29T00:32:04.151Z,102985.34
2023-01-29T00:32:44.361Z,102990.47
2023-01-29T00:33:17.948Z,103003.13
2023-01-29T00:33:55.250Z,103004.47
2023-01-29T00:34:30.720Z,102997.47
2023-01-29T00:35:02.974Z,102992.91
2023-01-29T00:35:34.830Z,102993.16
2023-01-29T00:36:11.851Z,103002.59
2023-01-29T00:36:46.532Z,102995.84
2023-01-29T00:37:21.167Z,103002.88
2023-01-29T00:37:55.311Z,103005.28
2023-01-29T00:38:29.451Z,103000.16
2023-01-29T00:39:11.146Z,103007.72
2023-01-29T00:39:48.068Z,103009.88
2023-01-29T00:40:23.766Z,103009.31
2023-01-29T00:41:16.654Z,103013.91
2023-01-29T00:42:06.790Z,103006.38
2023-01-29T00:43:06.895Z,103007.97
2023-01-29T00:43:59.886Z,103007.16
2023-01-29T00:44:52.564Z,103013.91
2023-01-29T00:45:27.332Z,103010.94
2023-01-29T00:46:03.720Z,103006.63
2023-01-29T00:46:38.909Z,103015.78
2023-01-29T00:47:33.283Z,103008.25
2023-01-29T00:48:05.601Z,103011.75
2023-01-29T00:48:42.422Z,103002.06
2023-01-29T00:49:17.027Z,103000.44
2023-01-29T00:49:51.158Z,103000.16
2023-01-29T00:50:26.880Z,103000.16
2023-01-29T00:51:03.727Z,102989.66
2023-01-29T00:51:42.641Z,102995.31
2023-01-29T00:52:26.374Z,102998.00
2023-01-29T00:53:00.169Z,102996.41
2023-01-29T00:53:43.607Z,102999.09
2023-01-29T00:54:22.211Z,102997.22
2023-01-29T00:54:55.678Z,103001.78
2023-01-29T00:55:29.850Z,102992.91
2023-01-29T00:56:01.786Z,102999.09
2023-01-29T00:56:35.775Z,102999.09
2023-01-29T00:57:09.051Z,102988.03
2023-01-29T00:57:42.892Z,102993.44
2023-01-29T00:58:15.559Z,102989.66
2023-01-29T00:58:47.294Z,102996.41
2023-01-29T00:59:21.227Z,102990.75
2023-01-29T00:59:55.947Z,102993.16
2023-01-29T01:00:29.815Z,102987.22
2023-01-29T01:01:04.470Z,102992.63
2023-01-29T01:01:54.346Z,102990.19
2023-01-29T01:02:46.287Z,102993.72
2023-01-29T01:03:21.505Z,102996.41
2023-01-29T01:03:56.136Z,102986.16
2023-01-29T01:04:30.739Z,102991.28
2023-01-29T01:05:06.262Z,102985.09
2023-01-29T01:05:39.327Z,102985.63
2023-01-29T01:06:11.654Z,102986.44
2023-01-29T01:06:48.545Z,102993.72
2023-01-29T01:07:23.778Z,102985.91
2023-01-29T01:08:01.589Z,102983.19
2023-01-29T01:08:55.084Z,102991.81
2023-01-29T01:09:45.581Z,102987.25
2023-01-29T01:10:30.536Z,102995.88
2023-01-29T01:11:15.529Z,102990.19
2023-01-29T01:11:47.490Z,102996.13
2023-01-29T01:12:20.919Z,102997.47
2023-01-29T01:13:06.761Z,102981.84
2023-01-29T01:13:45.457Z,102986.97
2023-01-29T01:14:20.757Z,102984.00
2023-01-29T01:14:55.277Z,102986.44
2023-01-29T01:15:35.672Z,102987.25
2023-01-29T01:16:21.086Z,102979.44
2023-01-29T01:16:53.077Z,102980.25
2023-01-29T01:17:27.233Z,102981.84
2023-01-29T01:18:01.127Z,102985.09
2023-01-29T01:18:33.957Z,102975.94
2023-01-29T01:19:05.976Z,102978.09
2023-01-29T01:19:42.671Z,102974.84
2023-01-29T01:20:17.035Z,102974.03
2023-01-29T01:20:59.753Z,102981.31
2023-01-29T01:21:36.668Z,102970.53
2023-01-29T01:22:12.947Z,102983.19
2023-01-29T01:22:49.247Z,102973.22
2023-01-29T01:23:23.533Z,102979.69
2023-01-29T01:23:59.888Z,102968.66
2023-01-29T01:24:32.446Z,102977.53
2023-01-29T01:25:06.127Z,102974.84
2023-01-29T01:25:40.960Z,102973.22
2023-01-29T01:26:14.983Z,102977.53
2023-01-29T01:26:52.339Z,102971.63
2023-01-29T01:27:30.048Z,102972.16
2023-01-29T01:28:03.982Z,102978.09
2023-01-29T01:28:38.246Z,102983.47
2023-01-29T01:29:10.066Z,102981.84
2023-01-29T01:29:43.941Z,102977.53
2023-01-29T01:30:19.742Z,102985.63
2023-01-29T01:30:57.115Z,102986.97
2023-01-29T01:31:36.367Z,102980.25
2023-01-29T01:32:13.351Z,102989.94
2023-01-29T01:32:47.979Z,102976.19
2023-01-29T01:34:27.358Z,102994.50
2023-01-29T01:35:01.918Z,102993.97
2023-01-29T01:35:39.242Z,102982.94
2023-01-29T01:36:13.702Z,102984.81
2023-01-29T01:36:45.427Z,102993.44
2023-01-29T01:37:17.310Z,102988.84
2023-01-29T01:37:50.273Z,102987.50
2023-01-29T01:38:22.927Z,102987.25
2023-01-29T01:38:54.927Z,102993.44
2023-01-29T01:39:28.402Z,102998.03
2023-01-29T01:40:02.689Z,102995.88
2023-01-29T01:40:38.843Z,102997.22
2023-01-29T01:41:13.442Z,102993.72
2023-01-29T01:41:48.441Z,102993.97
2023-01-29T01:42:22.835Z,102987.78
2023-01-29T01:43:04.215Z,102991.00
2023-01-29T01:43:50.803Z,102991.53
2023-01-29T01:45:13.646Z,102989.94
2023-01-29T01:45:46.870Z,102985.34
2023-01-29T01:46:26.093Z,102992.09
2023-01-29T01:47:00.725Z,102995.59
2023-01-29T01:47:43.513Z,103001.78
2023-01-29T01:48:19.235Z,102996.91
2023-01-29T01:48:58.028Z,102990.47
2023-01-29T01:50:26.460Z,102993.44
2023-01-29T01:51:10.603Z,102987.25
2023-01-29T01:51:53.810Z,102989.13
2023-01-29T01:52:34.374Z,102993.97
2023-01-29T01:53:18.514Z,102990.22
2023-01-29T01:54:00.213Z,102991.00
2023-01-29T01:54:35.864Z,102991.56
2023-01-29T01:55:09.981Z,102994.78
2023-01-29T01:55:48.578Z,102989.94
2023-01-29T01:56:28.045Z,102993.72
2023-01-29T01:57:09.675Z,102991.81
2023-01-29T01:57:45.030Z,102996.66
2023-01-29T01:58:35.280Z,102989.66
2023-01-29T01:59:18.113Z,102998.00
2023-01-29T01:59:57.154Z,102993.16
2023-01-29T02:00:29.072Z,102989.41
2023-01-29T02:01:03.418Z,102989.13
2023-01-29T02:01:41.142Z,102995.88
2023-01-29T02:02:35.151Z,102997.75
2023-01-29T02:03:26.288Z,102988.06
2023-01-29T02:04:23.481Z,102985.91
2023-01-29T02:05:16.852Z,102993.97
2023-01-29T02:06:11.165Z,102987.50
2023-01-29T02:07:02.863Z,102985.91
2023-01-29T02:08:02.832Z,102987.78
2023-01-29T02:09:24.983Z,102989.94
2023-01-29T02:10:10.148Z,102984.28
2023-01-29T02:10:47.080Z,102989.13
2023-01-29T02:11:27.623Z,102982.38
2023-01-29T02:12:01.375Z,102990.75
2023-01-29T02:12:33.331Z,102996.41
2023-01-29T02:13:06.897Z,102991.81
2023-01-29T02:13:39.189Z,102993.72
2023-01-29T02:14:19.270Z,102998.28
2023-01-29T02:14:54.048Z,102999.09
2023-01-29T02:15:29.026Z,102987.25
2023-01-29T02:16:01.315Z,102987.25
2023-01-29T02:16:37.937Z,102988.31
2023-01-29T02:17:17.672Z,102990.75
2023-01-29T02:17:51.203Z,102987.25
2023-01-29T02:18:26.001Z,102985.34
2023-01-29T02:18:57.967Z,102982.94
2023-01-29T02:19:52.669Z,102995.59
2023-01-29T02:20:32.019Z,102986.97
2023-01-29T02:21:50.067Z,102986.69
2023-01-29T02:22:29.977Z,102987.50
2023-01-29T02:23:11.864Z,102989.41
2023-01-29T02:24:12.954Z,102992.91
2023-01-29T02:25:14.696Z,102989.41
2023-01-29T02:26:00.859Z,102991.00
2023-01-29T02:26:58.936Z,102992.09
2023-01-29T02:27:38.716Z,102991.28
2023-01-29T02:28:45.695Z,103001.78
2023-01-29T02:29:35.400Z,102991.81
2023-01-29T02:31:22.457Z,102996.94
2023-01-29T02:32:20.282Z,102995.06
2023-01-29T02:33:29.695Z,102995.06
2023-01-29T02:34:19.424Z,102994.78
2023-01-29T02:35:33.621Z,102993.97
2023-01-29T02:36:24.939Z,102989.94
2023-01-29T02:37:14.054Z,102999.63
2023-01-29T02:38:13.983Z,102999.09
2023-01-29T02:39:12.049Z,103012.03
2023-01-29T02:40:11.171Z,103002.31
2023-01-29T02:42:05.543Z,103010.69
2023-01-29T02:42:49.243Z,103005.81
2023-01-29T02:43:38.983Z,102997.19
2023-01-29T02:44:16.494Z,103007.97
2023-01-29T02:45:14.058Z,103009.59
2023-01-29T02:45:57.381Z,103004.19
2023-01-29T02:46:49.712Z,103003.94
2023-01-29T02:47:43.257Z,103009.59
2023-01-29T02:48:25.409Z,103000.72
2023-01-29T02:49:44.270Z,103009.34
2023-01-29T02:50:21.357Z,103010.41
2023-01-29T02:51:04.715Z,103010.41
2023-01-29T02:51:55.601Z,103004.19
2023-01-29T02:52:41.016Z,103014.44
2023-01-29T02:53:30.075Z,103014.19
2023-01-29T02:54:11.820Z,103007.72
2023-01-29T02:55:03.044Z,103009.88
2023-01-29T02:55:44.113Z,103016.59
2023-01-29T02:56:20.899Z,103017.69
2023-01-29T02:57:04.967Z,103011.22
2023-01-29T02:57:48.005Z,103011.75
2023-01-29T02:58:42.005Z,103011.75
2023-01-29T02:59:23.818Z,103011.47
2023-01-29T03:00:13.857Z,103005.81
2023-01-29T03:00:52.331Z,103008.25
2023-01-29T03:01:31.625Z,102999.91
2023-01-29T03:02:21.300Z,103006.91
2023-01-29T03:03:06.406Z,103000.16
2023-01-29T03:03:46.950Z,103006.38
2023-01-29T03:04:55.655Z,103002.88
2023-01-29T03:05:53.713Z,103015.25
2023-01-29T03:06:33.624Z,103001.78
2023-01-29T03:07:34.923Z,102997.19
2023-01-29T03:08:36.729Z,103001.50
2023-01-29T03:09:19.924Z,103001.50
2023-01-29T03:10:00.016Z,102998.00
2023-01-29T03:10:40.051Z,102993.69
2023-01-29T03:11:15.286Z,102996.13
2023-01-29T03:11:55.398Z,102997.47
2023-01-29T03:12:35.998Z,102993.69
2023-01-29T03:13:44.705Z,102989.94
2023-01-29T03:14:25.571Z,103001.78
2023-01-29T03:15:16.991Z,102992.88
2023-01-29T03:16:04.401Z,102994.50
2023-01-29T03:16:48.048Z,103001.78
2023-01-29T03:17:24.723Z,102980.50
2023-01-29T03:18:11.941Z,102986.16
2023-01-29T03:18:50.871Z,102982.66
2023-01-29T03:19:44.999Z,102971.34
2023-01-29T03:20:23.505Z,102978.34
2023-01-29T03:21:01.632Z,102978.88
2023-01-29T03:21:59.759Z,102978.88
2023-01-29T03:22:39.668Z,102991.00
2023-01-29T03:23:22.027Z,102974.84
2023-01-29T03:24:18.800Z,102981.59
2023-01-29T03:25:18.209Z,102975.94
2023-01-29T03:26:13.630Z,102976.47
2023-01-29T03:27:26.165Z,102981.03
2023-01-29T03:28:20.435Z,102975.38
2023-01-29T03:29:11.212Z,102975.66
2023-01-29T03:30:03.451Z,102964.88
2023-01-29T03:31:14.954Z,102970.28
2023-01-29T03:32:04.422Z,102975.13
2023-01-29T03:32:38.633Z,102972.97
2023-01-29T03:33:13.862Z,102972.69
2023-01-29T03:34:00.941Z,102970.81
2023-01-29T03:34:47.011Z,102965.16
2023-01-29T03:35:43.021Z,102962.72
2023-01-29T03:36:45.758Z,102964.63
2023-01-29T03:37:31.128Z,102954.91
2023-01-29T03:38:10.318Z,102951.41
2023-01-29T03:38:45.887Z,102947.91
2023-01-29T03:39:19.327Z,102951.16
2023-01-29T03:39:54.954Z,102950.06
2023-01-29T03:40:32.015Z,102942.00
2023-01-29T03:42:05.029Z,102955.19
2023-01-29T03:42:41.907Z,102947.91
2023-01-29T03:43:21.597Z,102943.59
2023-01-29T03:45:02.917Z,102941.72
2023-01-29T03:46:01.722Z,102948.44
2023-01-29T03:46:45.023Z,102947.91
2023-01-29T03:47:21.926Z,102950.06
2023-01-29T03:48:19.012Z,102951.41
2023-01-29T03:49:19.747Z,102947.38
2023-01-29T03:50:17.707Z,102939.84
2023-01-29T03:51:27.220Z,102942.00
2023-01-29T03:52:11.138Z,102937.94
2023-01-29T03:52:51.404Z,102940.66
2023-01-29T03:53:30.386Z,102947.38
2023-01-29T03:54:26.525Z,102938.75
2023-01-29T03:55:17.334Z,102944.69
2023-01-29T03:57:06.488Z,102943.88
2023-01-29T03:58:01.075Z,102946.31
2023-01-29T03:58:55.758Z,102931.22
2023-01-29T04:00:29.110Z,102947.38
2023-01-29T04:01:27.220Z,102946.31
2023-01-29T04:02:02.700Z,102933.63
2023-01-29T04:02:57.921Z,102934.72
2023-01-29T04:03:38.090Z,102935.00
2023-01-29T04:04:21.245Z,102926.91
2023-01-29T04:05:01.033Z,102935.25
2023-01-29T04:05:46.421Z,102933.63
2023-01-29T04:06:32.501Z,102939.84
2023-01-29T04:07:10.926Z,102939.56
2023-01-29T04:07:48.050Z,102938.22
2023-01-29T04:08:32.439Z,102935.00
2023-01-29T04:09:13.228Z,102927.19
2023-01-29T04:09:56.846Z,102914.25
2023-01-29T04:10:38.532Z,102913.97
2023-01-29T04:11:20.631Z,102915.88
2023-01-29T04:13:04.607Z,102914.78
2023-01-29T04:13:49.040Z,102923.69
2023-01-29T04:14:24.675Z,102919.63
2023-01-29T04:15:01.234Z,102918.81
2023-01-29T04:15:43.199Z,102914.53
2023-01-29T04:17:33.080Z,102919.91
2023-01-29T04:18:08.062Z,102903.75
2023-01-29T04:18:41.643Z,102915.88
2023-01-29T04:19:21.859Z,102916.13
2023-01-29T04:19:59.144Z,102921.78
2023-01-29T04:20:34.776Z,102921.78
2023-01-29T04:21:12.535Z,102916.94
2023-01-29T04:21:48.352Z,102914.25
2023-01-29T04:22:31.703Z,102922.06
2023-01-29T04:23:58.024Z,102912.38
2023-01-29T04:25:31.739Z,102908.59
2023-01-29T04:26:15.258Z,102916.66
2023-01-29T04:26:55.613Z,102917.47
2023-01-29T04:27:56.757Z,102911.00
2023-01-29T04:28:56.343Z,102914.53
2023-01-29T04:29:48.012Z,102904.56
2023-01-29T04:30:46.948Z,102912.38
2023-01-29T04:31:28.207Z,102912.63
2023-01-29T04:32:18.063Z,102907.78
2023-01-29T04:33:07.385Z,102908.59
2023-01-29T04:34:11.898Z,102910.22
2023-01-29T04:34:59.895Z,102902.94
2023-01-29T04:35:57.331Z,102912.91
2023-01-29T04:36:49.795Z,102908.91
2023-01-29T04:37:55.799Z,102909.16
2023-01-29T04:39:05.500Z,102921.25
2023-01-29T04:40:14.895Z,102911.28
2023-01-29T04:40:51.809Z,102908.34
2023-01-29T04:41:30.675Z,102906.19
2023-01-29T04:42:22.820Z,102908.59
2023-01-29T04:43:05.969Z,102913.97
2023-01-29T04:44:08.597Z,102907.00
2023-01-29T04:45:09.185Z,102898.94
2023-01-29T04:46:02.913Z,102898.63
2023-01-29T04:46:42.083Z,102906.19
2023-01-29T04:47:37.004Z,102900.81
2023-01-29T04:48:21.040Z,102910.78
2023-01-29T04:48:52.661Z,102906.47
2023-01-29T04:49:50.929Z,102911.84
2023-01-29T04:50:36.459Z,102902.44
2023-01-29T04:51:22.213Z,102898.41
2023-01-29T04:52:24.407Z,102897.59
2023-01-29T04:53:20.362Z,102897.84
2023-01-29T04:54:27.331Z,102893.28
2023-01-29T04:55:08.016Z,102892.19
2023-01-29T04:55:58.286Z,102897.03
2023-01-29T04:56:52.006Z,102891.38
2023-01-29T04:58:05.076Z,102893.28
2023-01-29T04:58:47.237Z,102889.78
2023-01-29T04:59:25.886Z,102894.34
2023-01-29T05:00:17.224Z,102888.16
2023-01-29T05:00:53.509Z,102892.47
2023-01-29T05:01:32.337Z,102885.47
2023-01-29T05:02:09.492Z,102876.59
2023-01-29T05:02:47.424Z,102882.78
2023-01-29T05:03:28.014Z,102876.84
2023-01-29T05:04:13.404Z,102877.66
2023-01-29T05:04:49.705Z,102872.53
2023-01-29T05:05:24.081Z,102873.09
2023-01-29T05:06:00.713Z,102874.16
2023-01-29T05:06:34.849Z,102871.75
2023-01-29T05:07:12.325Z,102878.19
2023-01-29T05:07:50.837Z,102874.16
2023-01-29T05:08:27.972Z,102869.59
2023-01-29T05:09:04.391Z,102875.50
2023-01-29T05:09:44.598Z,102874.97
2023-01-29T05:10:25.097Z,102880.34
2023-01-29T05:11:01.451Z,102875.50
2023-01-29T05:11:37.557Z,102866.34
2023-01-29T05:12:20.336Z,102870.66
2023-01-29T05:13:01.325Z,102879.00
2023-01-29T05:13:39.618Z,102884.13
2023-01-29T05:14:17.536Z,102876.31
2023-01-29T05:14:53.892Z,102871.75
2023-01-29T05:15:37.125Z,102874.69
2023-01-29T05:16:50.702Z,102871.47
2023-01-29T05:17:24.197Z,102876.03
2023-01-29T05:18:02.036Z,102872.00
2023-01-29T05:18:34.192Z,102867.16
2023-01-29T05:19:05.696Z,102879.00
2023-01-29T05:19:45.120Z,102876.84
2023-01-29T05:20:18.884Z,102881.69
2023-01-29T05:20:59.352Z,102882.50
2023-01-29T05:21:33.062Z,102876.03
2023-01-29T05:22:07.634Z,102881.69
2023-01-29T05:22:43.914Z,102882.78
2023-01-29T05:23:20.251Z,102882.50
2023-01-29T05:24:31.608Z,102887.91
2023-01-29T05:25:05.831Z,102881.69
2023-01-29T05:25:40.018Z,102884.66
2023-01-29T05:26:30.039Z,102884.13
2023-01-29T05:27:20.148Z,102883.59
2023-01-29T05:29:47.288Z,102892.19
2023-01-29T05:30:22.025Z,102883.31
2023-01-29T05:30:57.484Z,102894.88
2023-01-29T05:31:32.350Z,102893.28
2023-01-29T05:32:08.438Z,102904.31
2023-01-29T05:32:41.473Z,102892.47
2023-01-29T05:33:35.043Z,102892.19
2023-01-29T05:34:09.677Z,102890.31
2023-01-29T05:34:46.909Z,102895.16
2023-01-29T05:35:21.032Z,102898.13
2023-01-29T05:35:58.274Z,102892.47
2023-01-29T05:36:33.639Z,102898.66
2023-01-29T05:37:08.654Z,102890.03
2023-01-29T05:37:40.496Z,102885.47
2023-01-29T05:38:17.088Z,102886.81
2023-01-29T05:38:51.306Z,102884.13
2023-01-29T05:39:23.401Z,102891.66
2023-01-29T05:39:57.176Z,102888.69
2023-01-29T05:40:28.792Z,102884.13
2023-01-29T05:41:03.311Z,102888.16
2023-01-29T05:41:42.690Z,102882.25
2023-01-29T05:42:16.983Z,102891.13
2023-01-29T05:42:50.923Z,102886.00
2023-01-29T05:43:25.436Z,102889.50
2023-01-29T05:44:00.631Z,102884.94
2023-01-29T05:44:32.495Z,102884.41
2023-01-29T05:45:10.320Z,102894.09
2023-01-29T05:45:57.423Z,102885.47
2023-01-29T05:46:30.819Z,102882.25
2023-01-29T05:47:15.525Z,102886.28
2023-01-29T05:47:50.259Z,102882.25
2023-01-29T05:48:37.288Z,102890.03
2023-01-29T05:49:11.166Z,102894.34
2023-01-29T05:49:44.490Z,102892.19
2023-01-29T05:50:19.304Z,102892.47
2023-01-29T05:50:56.292Z,102896.25
2023-01-29T05:51:31.199Z,102885.72
2023-01-29T05:52:04.804Z,102887.09
2023-01-29T05:52:36.648Z,102893.00
2023-01-29T05:53:09.540Z,102898.38
2023-01-29T05:53:48.766Z,102898.94
2023-01-29T05:54:20.653Z,102892.19
2023-01-29T05:54:54.842Z,102893.00
2023-01-29T05:55:32.199Z,102897.03
2023-01-29T05:56:05.312Z,102890.84
2023-01-29T05:56:39.216Z,102881.69
2023-01-29T05:57:10.931Z,102890.03
2023-01-29T05:57:45.662Z,102883.59
2023-01-29T05:58:21.923Z,102879.81
2023-01-29T05:58:53.523Z,102887.63
2023-01-29T05:59:27.177Z,102877.94
2023-01-29T06:00:00.327Z,102870.66
2023-01-29T06:00:34.477Z,102871.47
2023-01-29T06:01:24.968Z,102869.59
2023-01-29T06:01:57.671Z,102859.09
2023-01-29T06:02:34.280Z,102863.41
2023-01-29T06:03:08.910Z,102870.13
2023-01-29T06:03:43.278Z,102865.00
2023-01-29T06:04:17.210Z,102869.03
2023-01-29T06:04:51.852Z,102869.84
2023-01-29T06:05:25.692Z,102858.81
2023-01-29T06:05:57.683Z,102854.00
2023-01-29T06:06:29.560Z,102870.66
2023-01-29T06:07:03.538Z,102859.09
2023-01-29T06:07:43.735Z,102854.00
2023-01-29T06:08:17.889Z,102858.00
2023-01-29T06:08:54.585Z,102848.88
2023-01-29T06:09:33.913Z,102858.28
2023-01-29T06:10:08.680Z,102852.38
2023-01-29T06:10:42.386Z,102859.09
2023-01-29T06:11:18.299Z,102863.94
2023-01-29T06:11:52.408Z,102857.75
2023-01-29T06:12:30.584Z,102858.28
2023-01-29T06:13:07.411Z,102848.63
2023-01-29T06:14:30.992Z,102858.00
2023-01-29T06:15:05.369Z,102854.50
2023-01-29T06:15:43.031Z,102858.53
2023-01-29T06:16:35.510Z,102857.47
2023-01-29T06:17:07.379Z,102852.63
2023-01-29T06:17:41.527Z,102854.50
2023-01-29T06:18:15.691Z,102866.63
2023-01-29T06:18:47.412Z,102849.69
2023-01-29T06:19:24.503Z,102856.94
2023-01-29T06:19:57.756Z,102854.25
2023-01-29T06:20:31.549Z,102860.16
2023-01-29T06:21:13.778Z,102855.84
2023-01-29T06:21:47.616Z,102854.00
2023-01-29T06:22:22.041Z,102851.00
2023-01-29T06:23:01.374Z,102844.03
2023-01-29T06:23:34.983Z,102847.00
2023-01-29T06:24:09.388Z,102851.28
2023-01-29T06:24:43.965Z,102853.16
2023-01-29T06:25:18.868Z,102845.13
2023-01-29T06:25:53.115Z,102850.19
2023-01-29T06:26:29.276Z,102842.94
2023-01-29T06:27:03.255Z,102835.97
2023-01-29T06:27:39.060Z,102838.66
2023-01-29T06:28:13.926Z,102848.03
2023-01-29T06:28:49.439Z,102842.69
2023-01-29T06:29:23.173Z,102838.13
2023-01-29T06:29:56.814Z,102845.63
2023-01-29T06:30:31.033Z,102844.53
2023-01-29T06:31:21.951Z,102844.28
2023-01-29T06:31:55.945Z,102839.16
2023-01-29T06:32:32.652Z,102828.97
2023-01-29T06:33:09.393Z,102833.28
2023-01-29T06:33:46.129Z,102841.34
2023-01-29T06:34:26.959Z,102837.53
2023-01-29T06:35:00.899Z,102830.84
2023-01-29T06:35:34.905Z,102827.88
2023-01-29T06:36:12.990Z,102841.03
2023-01-29T06:36:46.757Z,102831.66
2023-01-29T06:37:20.584Z,102836.50
2023-01-29T06:37:52.267Z,102830.84
2023-01-29T06:38:32.948Z,102832.72
2023-01-29T06:39:06.949Z,102829.50
2023-01-29T06:39:40.787Z,102837.31
2023-01-29T06:40:15.382Z,102822.78
2023-01-29T06:40:52.597Z,102825.19
2023-01-29T06:41:30.736Z,102835.44
2023-01-29T06:42:04.996Z,102829.78
2023-01-29T06:42:39.124Z,102828.16
2023-01-29T06:43:13.462Z,102828.69
2023-01-29T06:44:58.077Z,102837.84
2023-01-29T06:45:38.774Z,102838.94
2023-01-29T06:46:10.366Z,102838.13
2023-01-29T06:46:45.043Z,102833.81
2023-01-29T06:47:18.160Z,102839.72
2023-01-29T06:47:58.028Z,102847.50
2023-01-29T06:48:48.649Z,102849.94
2023-01-29T06:49:20.519Z,102851.00
2023-01-29T06:49:58.218Z,102848.31
2023-01-29T06:50:32.305Z,102852.63
2023-01-29T06:51:08.919Z,102852.34
2023-01-29T06:51:49.763Z,102851.28
2023-01-29T06:52:21.284Z,102844.03
2023-01-29T06:52:52.631Z,102841.03
2023-01-29T06:53:26.951Z,102840.25
2023-01-29T06:54:05.950Z,102836.47
2023-01-29T06:54:43.663Z,102831.09
2023-01-29T06:55:20.821Z,102831.91
2023-01-29T06:57:36.198Z,102832.44
2023-01-29T06:58:15.134Z,102832.97
2023-01-29T06:58:52.478Z,102831.34
2023-01-29T06:59:29.301Z,102833.28
2023-01-29T07:00:03.078Z,102838.91
2023-01-29T07:01:35.663Z,102842.94
2023-01-29T07:02:13.219Z,102839.69
2023-01-29T07:03:53.951Z,102833.53
2023-01-29T07:04:41.003Z,102842.66
2023-01-29T07:05:17.457Z,102838.91
2023-01-29T07:05:55.251Z,102832.69
2023-01-29T07:06:44.239Z,102835.41
2023-01-29T07:07:37.146Z,102833.25
2023-01-29T07:08:14.789Z,102826.28
2023-01-29T07:08:46.541Z,102824.91
2023-01-29T07:09:25.538Z,102840.78
2023-01-29T07:10:02.374Z,102833.50
2023-01-29T07:10:34.366Z,102826.81
2023-01-29T07:11:14.070Z,102838.91
2023-01-29T07:11:51.258Z,102824.66
2023-01-29T07:12:27.187Z,102841.34
2023-01-29T07:13:02.328Z,102828.44
2023-01-29T07:13:55.401Z,102837.53
2023-01-29T07:14:34.751Z,102835.16
2023-01-29T07:15:09.937Z,102839.16
2023-01-29T07:15:52.412Z,102836.47
2023-01-29T07:16:27.938Z,102827.88
2023-01-29T07:17:04.508Z,102839.69
2023-01-29T07:17:38.320Z,102839.97
2023-01-29T07:18:18.188Z,102833.50
2023-01-29T07:18:51.899Z,102829.47
2023-01-29T07:19:26.830Z,102833.28
2023-01-29T07:20:03.490Z,102835.66
2023-01-29T07:20:43.754Z,102832.97
2023-01-29T07:21:15.703Z,102830.03
2023-01-29T07:21:48.772Z,102831.09
2023-01-29T07:22:22.621Z,102827.88
2023-01-29T07:22:57.009Z,102823.84
2023-01-29T07:23:30.726Z,102831.34
2023-01-29T07:24:05.141Z,102836.47
2023-01-29T07:24:39.461Z,102841.84
2023-01-29T07:25:15.165Z,102845.34
2023-01-29T07:25:50.014Z,102842.13
2023-01-29T07:26:27.286Z,102846.44
2023-01-29T07:27:05.395Z,102833.81
2023-01-29T07:27:39.211Z,102839.44
2023-01-29T07:28:13.998Z,102840.25
2023-01-29T07:28:45.906Z,102839.69
2023-01-29T07:29:20.444Z,102833.28
2023-01-29T07:29:52.215Z,102842.41
2023-01-29T07:30:29.073Z,102837.81
2023-01-29T07:31:03.921Z,102832.97
2023-01-29T07:31:35.659Z,102833.28
2023-01-29T07:32:12.675Z,102834.03
2023-01-29T07:32:52.064Z,102838.34
2023-01-29T07:33:25.644Z,102840.25
2023-01-29T07:34:48.544Z,102831.94
2023-01-29T07:35:22.733Z,102845.13
2023-01-29T07:35:57.529Z,102849.94
2023-01-29T07:36:29.902Z,102845.94
2023-01-29T07:37:03.977Z,102830.31
2023-01-29T07:37:38.860Z,102838.13
2023-01-29T07:38:11.951Z,102833.00
2023-01-29T07:38:43.721Z,102843.22
2023-01-29T07:40:14.737Z,102836.19
2023-01-29T07:40:47.102Z,102826.53
2023-01-29T07:41:18.971Z,102826.81
2023-01-29T07:41:51.981Z,102827.09
2023-01-29T07:42:26.031Z,102830.59
2023-01-29T07:42:59.776Z,102834.03
2023-01-29T07:43:39.421Z,102825.19
2023-01-29T07:44:15.931Z,102828.41
2023-01-29T07:44:47.713Z,102825.69
2023-01-29T07:45:24.539Z,102829.19
2023-01-29T07:46:04.849Z,102822.75
2023-01-29T07:46:36.547Z,102817.91
2023-01-29T07:47:10.689Z,102816.31
2023-01-29T07:47:44.501Z,102816.53
2023-01-29T07:48:16.023Z,102821.41
2023-01-29T07:48:49.839Z,102813.88
2023-01-29T07:49:24.084Z,102811.72
2023-01-29T07:49:57.580Z,102820.09
2023-01-29T07:50:35.501Z,102811.72
2023-01-29T07:51:09.879Z,102821.94
2023-01-29T07:51:44.414Z,102810.13
2023-01-29T07:52:20.225Z,102812.50
2023-01-29T07:52:57.978Z,102820.31
2023-01-29T07:53:33.201Z,102823.53
2023-01-29T07:54:05.192Z,102811.72
2023-01-29T07:54:38.538Z,102817.91
2023-01-29T07:55:16.129Z,102821.66
2023-01-29T07:55:50.231Z,102812.25
2023-01-29T07:56:27.671Z,102810.34
2023-01-29T07:56:59.529Z,102813.84
2023-01-29T07:57:34.288Z,102810.63
2023-01-29T07:58:11.909Z,102797.19